Time;durP1;ratioP1;P1;durP2;ratioP2;P2;SDS_P1;SDS_P2;PMS_P1;PMS_P2;Temp;Humidity;BMP_temperature;BMP_pressure;BME280_temperature;BME280_humidity;BME280_pressure;Samples;Min_cycle;Max_cycle;Signal;HPM_P1;HPM_P2
2022/03/30 00:00:43;;;;;;;12.68;11.43;;;;;;;10.57;51.17;97964.93;1722821;83;20963;-65
2022/03/30 00:03:11;;;;;;;12.68;11.38;;;;;;;10.53;51.37;97973.85;1707161;82;21531;-66
2022/03/30 00:05:38;;;;;;;11.88;10.68;;;;;;;10.49;51.58;97973.44;1714502;82;21574;-67
2022/03/30 00:08:08;;;;;;;12.93;11.63;;;;;;;10.46;51.78;97974.34;1723241;82;20931;-66
2022/03/30 00:10:35;;;;;;;15.35;12.30;;;;;;;10.45;52.00;97975.39;1722667;82;21503;-65
2022/03/30 00:13:04;;;;;;;15.05;12.10;;;;;;;10.44;52.12;97972.41;1709449;82;20950;-67
2022/03/30 00:15:31;;;;;;;12.88;11.63;;;;;;;10.41;52.28;97975.48;1726353;82;21032;-67
2022/03/30 00:17:58;;;;;;;13.20;11.53;;;;;;;10.37;52.39;97965.78;1720999;82;20959;-65
2022/03/30 00:20:27;;;;;;;12.60;11.30;;;;;;;10.36;52.62;97965.47;1715314;82;20860;-66
2022/03/30 00:22:56;;;;;;;12.70;11.45;;;;;;;10.34;52.84;97970.17;1724674;82;20891;-65
2022/03/30 00:25:23;;;;;;;12.73;11.43;;;;;;;10.33;53.11;97963.72;1716835;82;21278;-66
2022/03/30 00:27:51;;;;;;;12.98;11.65;;;;;;;10.31;53.38;97959.13;1718957;82;20998;-67
2022/03/30 00:30:19;;;;;;;12.47;11.28;;;;;;;10.27;53.63;97960.58;1711440;82;21013;-66
2022/03/30 00:32:46;;;;;;;12.75;11.45;;;;;;;10.26;53.85;97960.25;1708733;82;21005;-66
2022/03/30 00:35:15;;;;;;;13.62;12.00;;;;;;;10.22;54.10;97958.50;1726926;82;21469;-66
2022/03/30 00:37:43;;;;;;;12.68;11.38;;;;;;;10.18;54.26;97957.30;1719136;82;21265;-66
2022/03/30 00:40:14;;;;;;;12.07;10.60;;;;;;;10.15;54.48;97958.20;1714172;82;21548;-66
2022/03/30 00:42:41;;;;;;;12.28;11.08;;;;;;;10.11;54.71;97954.30;1712688;82;21535;-66
2022/03/30 00:45:13;;;;;;;12.75;11.50;;;;;;;10.05;54.88;97954.59;1726123;82;20887;-66
2022/03/30 00:47:41;;;;;;;12.88;11.57;;;;;;;10.01;55.08;97956.55;1721414;82;21038;-66
2022/03/30 00:50:12;;;;;;;13.55;11.22;;;;;;;9.96;55.27;97957.66;1711324;82;21303;-66
2022/03/30 00:52:39;;;;;;;12.15;11.05;;;;;;;9.92;55.52;97958.57;1725108;81;21491;-66
2022/03/30 00:55:07;;;;;;;12.65;11.38;;;;;;;9.89;55.60;97955.81;1723224;82;20899;-66
2022/03/30 00:57:35;;;;;;;14.10;11.05;;;;;;;9.84;55.74;97956.92;1705163;82;20946;-66
2022/03/30 01:00:08;;;;;;;12.85;11.25;;;;;;;9.83;55.97;97955.78;1706954;82;21005;-67
2022/03/30 01:02:38;;;;;;;13.45;12.07;;;;;;;9.83;56.10;97954.45;1713847;82;21263;-65
2022/03/30 01:05:07;;;;;;;12.40;11.20;;;;;;;9.80;56.22;97954.34;1701625;82;21002;-68
2022/03/30 01:07:34;;;;;;;13.50;12.20;;;;;;;9.79;56.34;97951.41;1714149;82;20994;-67
2022/03/30 01:10:06;;;;;;;13.18;11.85;;;;;;;9.77;56.41;97945.98;1716311;82;21357;-65
2022/03/30 01:12:38;;;;;;;12.85;11.48;;;;;;;9.72;56.56;97947.11;1727406;82;21493;-66
2022/03/30 01:15:08;;;;;;;12.45;11.28;;;;;;;9.69;56.70;97947.50;1719942;82;21872;-67
2022/03/30 01:17:37;;;;;;;13.10;11.90;;;;;;;9.67;56.82;97938.92;1712930;82;21062;-67
2022/03/30 01:20:07;;;;;;;15.18;11.65;;;;;;;9.63;56.93;97941.66;1708884;82;20903;-66
2022/03/30 01:22:34;;;;;;;13.30;11.88;;;;;;;9.62;57.09;97937.39;1719220;82;20960;-67
2022/03/30 01:25:02;;;;;;;12.80;11.53;;;;;;;9.59;57.24;97946.57;1725122;82;21710;-66
2022/03/30 01:27:30;;;;;;;14.03;12.78;;;;;;;9.57;57.40;97945.14;1714377;82;21257;-65
2022/03/30 01:32:43;;;;;;;12.28;11.18;;;;;;;9.55;57.72;97945.31;1717002;83;21512;-64
2022/03/30 01:35:13;;;;;;;12.85;11.50;;;;;;;9.56;57.88;97940.84;1715759;82;21594;-66
2022/03/30 01:37:40;;;;;;;14.80;11.75;;;;;;;9.55;57.88;97934.70;1724677;82;21182;-64
2022/03/30 01:40:09;;;;;;;13.55;11.20;;;;;;;9.58;57.81;97932.15;1725873;82;21255;-66
2022/03/30 01:42:36;;;;;;;13.03;11.75;;;;;;;9.59;57.78;97929.31;1717786;82;21011;-66
2022/03/30 01:45:05;;;;;;;12.90;11.57;;;;;;;9.62;57.80;97932.87;1708424;82;20942;-67
2022/03/30 01:47:32;;;;;;;13.58;12.37;;;;;;;9.61;57.87;97931.75;1723516;82;21037;-66
2022/03/30 01:50:00;;;;;;;12.88;11.68;;;;;;;9.61;57.95;97935.23;1720579;83;20997;-66
2022/03/30 01:52:28;;;;;;;12.93;11.70;;;;;;;9.62;58.03;97933.41;1717529;82;21263;-66
2022/03/30 01:54:55;;;;;;;13.72;12.37;;;;;;;9.60;58.08;97939.40;1723068;81;20975;-65
2022/03/30 01:57:23;;;;;;;13.03;11.83;;;;;;;9.61;58.13;97939.72;1725722;82;21519;-66
2022/03/30 01:59:50;;;;;;;13.32;11.95;;;;;;;9.61;58.18;97943.70;1732938;82;21021;-67
2022/03/30 02:02:17;;;;;;;13.03;11.60;;;;;;;9.62;58.21;97940.04;1714378;82;20863;-66
2022/03/30 02:04:44;;;;;;;14.05;12.53;;;;;;;9.62;58.28;97940.84;1724701;82;21266;-65
2022/03/30 02:07:12;;;;;;;13.95;12.45;;;;;;;9.64;58.30;97944.13;1716706;82;21014;-68
2022/03/30 02:09:41;;;;;;;16.62;12.78;;;;;;;9.66;58.26;97951.88;1730688;81;21225;-66
2022/03/30 02:12:10;;;;;;;15.03;12.23;;;;;;;9.67;58.23;97956.19;1722061;82;21465;-65
2022/03/30 02:14:39;;;;;;;14.23;12.93;;;;;;;9.67;58.21;97954.86;1730116;82;21012;-66
2022/03/30 02:17:08;;;;;;;13.32;11.90;;;;;;;9.68;58.21;97953.31;1717743;82;20895;-65
2022/03/30 02:19:35;;;;;;;13.68;12.37;;;;;;;9.69;58.24;97954.97;1716594;82;20974;-66
2022/03/30 02:22:03;;;;;;;15.60;12.88;;;;;;;9.71;58.24;97951.59;1733468;82;21536;-66
2022/03/30 02:24:30;;;;;;;15.75;13.35;;;;;;;9.70;58.37;97946.46;1731366;81;20902;-66
2022/03/30 02:26:57;;;;;;;14.30;12.88;;;;;;;9.69;58.38;97947.00;1725432;82;20891;-67
2022/03/30 02:29:24;;;;;;;16.73;13.40;;;;;;;9.68;58.51;97941.88;1730541;82;21375;-66
2022/03/30 02:31:52;;;;;;;15.32;13.72;;;;;;;9.66;58.58;97941.27;1733424;82;21009;-67
2022/03/30 02:34:19;;;;;;;16.35;14.05;;;;;;;9.61;58.67;97941.88;1716879;82;20899;-67
2022/03/30 02:36:46;;;;;;;16.77;12.90;;;;;;;9.59;58.78;97941.27;1725396;82;20994;-66
2022/03/30 02:39:15;;;;;;;15.18;13.60;;;;;;;9.58;58.98;97943.59;1731084;82;20953;-66
2022/03/30 02:41:42;;;;;;;15.72;14.00;;;;;;;9.58;59.09;97936.13;1727141;81;21265;-66
2022/03/30 02:44:12;;;;;;;15.30;13.80;;;;;;;9.57;59.14;97941.16;1721766;82;21104;-65
2022/03/30 02:46:40;;;;;;;15.15;13.65;;;;;;;9.56;59.17;97937.67;1723565;82;20986;-67
2022/03/30 02:49:07;;;;;;;16.40;14.23;;;;;;;9.55;59.27;97938.68;1728224;82;21448;-65
2022/03/30 02:51:35;;;;;;;15.48;13.88;;;;;;;9.56;59.34;97939.00;1730061;82;20962;-66
2022/03/30 02:54:02;;;;;;;14.55;13.15;;;;;;;9.57;59.41;97947.80;1707557;81;22157;-68
2022/03/30 02:56:29;;;;;;;15.05;13.60;;;;;;;9.56;59.40;97944.31;1716519;82;21500;-65
2022/03/30 02:58:57;;;;;;;14.73;13.22;;;;;;;9.55;59.45;97943.99;1725503;82;21047;-67
2022/03/30 03:01:24;;;;;;;17.25;14.25;;;;;;;9.53;59.54;97943.88;1721470;82;20971;-65
2022/03/30 03:03:52;;;;;;;15.05;13.10;;;;;;;9.53;59.68;97946.54;1722550;82;21072;-66
2022/03/30 03:06:19;;;;;;;14.85;12.85;;;;;;;9.51;59.72;97954.72;1705982;82;21281;-65
2022/03/30 03:08:48;;;;;;;15.58;13.98;;;;;;;9.48;59.80;97951.13;1719552;82;20971;-65
2022/03/30 03:11:15;;;;;;;16.35;13.58;;;;;;;9.45;59.88;97950.20;1719519;82;21078;-66
2022/03/30 03:13:43;;;;;;;15.65;13.68;;;;;;;9.41;60.05;97942.84;1714279;82;21512;-67
2022/03/30 03:16:13;;;;;;;15.35;13.78;;;;;;;9.41;60.17;97942.84;1715710;83;20952;-65
2022/03/30 03:18:41;;;;;;;15.55;14.00;;;;;;;9.42;60.17;97945.28;1720783;82;22592;-66
2022/03/30 03:21:08;;;;;;;15.60;14.00;;;;;;;9.43;60.15;97947.44;1714789;82;21161;-66
2022/03/30 03:23:35;;;;;;;14.90;13.35;;;;;;;9.42;60.20;97951.92;1724202;82;20998;-67
2022/03/30 03:26:03;;;;;;;15.93;14.33;;;;;;;9.43;60.22;97962.03;1718118;82;21011;-67
2022/03/30 03:28:30;;;;;;;15.18;13.58;;;;;;;9.44;60.28;97965.01;1721035;82;20895;-68
2022/03/30 03:30:57;;;;;;;14.63;13.13;;;;;;;9.43;60.34;97960.20;1724632;82;21288;-65
2022/03/30 03:33:25;;;;;;;20.60;15.30;;;;;;;9.44;60.39;97952.53;1706615;82;21046;-66
2022/03/30 03:35:52;;;;;;;14.83;13.25;;;;;;;9.44;60.46;97954.39;1712002;82;21009;-67
2022/03/30 03:38:20;;;;;;;16.80;14.33;;;;;;;9.42;60.53;97952.42;1715852;82;20915;-66
2022/03/30 03:40:47;;;;;;;15.18;13.68;;;;;;;9.41;60.66;97944.17;1726085;82;21038;-64
2022/03/30 03:43:14;;;;;;;16.32;14.73;;;;;;;9.41;60.74;97946.28;1724593;82;22164;-67
2022/03/30 03:45:41;;;;;;;20.57;15.28;;;;;;;9.41;60.81;97956.11;1717704;82;21510;-66
2022/03/30 03:48:10;;;;;;;16.00;14.50;;;;;;;9.39;60.90;97943.02;1712845;82;20950;-65
2022/03/30 03:50:37;;;;;;;17.67;15.58;;;;;;;9.38;60.95;97957.33;1713869;82;21515;-66
2022/03/30 03:53:04;;;;;;;17.27;14.60;;;;;;;9.36;61.07;97959.34;1718088;82;20998;-67
2022/03/30 03:55:33;;;;;;;17.92;15.38;;;;;;;9.36;61.20;97958.55;1732163;80;21240;-65
2022/03/30 03:58:01;;;;;;;17.25;15.20;;;;;;;9.33;61.30;97954.45;1752914;81;20855;-67
2022/03/30 04:00:28;;;;;;;16.75;15.00;;;;;;;9.31;61.46;97936.56;1744388;81;20909;-66
2022/03/30 04:02:56;;;;;;;17.17;15.48;;;;;;;9.30;61.58;97941.58;1739611;81;21537;-67
2022/03/30 04:05:23;;;;;;;17.12;15.53;;;;;;;9.29;61.64;97941.26;1740301;81;20995;-66
2022/03/30 04:07:52;;;;;;;17.12;15.38;;;;;;;9.29;61.75;97938.61;1743792;81;21876;-66
2022/03/30 04:10:19;;;;;;;19.02;15.25;;;;;;;9.29;61.78;97937.28;1741325;80;20987;-65
2022/03/30 04:12:48;;;;;;;17.45;15.13;;;;;;;9.28;61.87;97943.09;1741247;81;20994;-65
2022/03/30 04:15:15;;;;;;;17.20;15.45;;;;;;;9.27;61.93;97946.78;1734211;81;21019;-67
2022/03/30 04:17:46;;;;;;;18.48;15.93;;;;;;;9.26;62.00;97937.16;1735270;81;21519;-67
2022/03/30 04:20:14;;;;;;;16.32;14.73;;;;;;;9.26;62.06;97949.61;1747228;81;21158;-65
2022/03/30 04:22:43;;;;;;;17.30;15.30;;;;;;;9.24;62.19;97948.50;1735753;80;20901;-67
2022/03/30 04:25:11;;;;;;;19.42;17.00;;;;;;;9.23;62.31;97947.34;1751960;80;20867;-68
2022/03/30 04:27:50;;;;;;;17.65;15.88;;;;;;;9.22;62.43;97949.20;1744058;81;21064;-66
2022/03/30 04:30:18;;;;;;;17.50;15.72;;;;;;;9.24;62.54;97950.33;1741430;81;20875;-68
2022/03/30 04:32:46;;;;;;;16.50;15.00;;;;;;;9.25;62.60;97954.62;1738312;81;21246;-67
2022/03/30 04:35:14;;;;;;;21.30;16.07;;;;;;;9.27;62.67;97953.91;1745820;81;21009;-66
2022/03/30 04:37:42;;;;;;;17.90;16.10;;;;;;;9.28;62.80;97951.58;1753754;81;20997;-68
2022/03/30 04:40:11;;;;;;;17.45;15.18;;;;;;;9.28;62.85;97955.03;1740996;80;21114;-66
2022/03/30 04:42:38;;;;;;;16.85;15.13;;;;;;;9.32;62.88;97970.05;1741020;81;20980;-66
2022/03/30 04:45:07;;;;;;;16.93;15.23;;;;;;;9.34;62.91;97970.67;1746373;81;21306;-65
2022/03/30 04:47:35;;;;;;;16.52;14.83;;;;;;;9.38;62.83;97963.97;1748835;81;21547;-66
2022/03/30 04:50:04;;;;;;;17.27;14.98;;;;;;;9.41;62.80;97962.21;1743745;81;21452;-67
2022/03/30 04:52:32;;;;;;;23.38;16.42;;;;;;;9.44;62.76;97961.02;1744371;81;21017;-66
2022/03/30 04:54:59;;;;;;;17.77;15.23;;;;;;;9.47;62.71;97964.08;1729066;81;21006;-68
2022/03/30 04:57:27;;;;;;;19.45;16.20;;;;;;;9.50;62.64;97969.00;1720862;82;21397;-66
2022/03/30 04:59:54;;;;;;;16.12;14.53;;;;;;;9.52;62.57;97966.95;1721010;82;21460;-66
2022/03/30 05:02:21;;;;;;;17.60;15.83;;;;;;;9.53;62.58;97970.43;1713163;82;21532;-66
2022/03/30 05:04:49;;;;;;;18.77;15.65;;;;;;;9.57;62.55;97974.34;1722062;82;20990;-67
2022/03/30 05:07:16;;;;;;;16.40;14.90;;;;;;;9.61;62.55;97979.55;1720298;82;20939;-64
2022/03/30 05:09:45;;;;;;;16.85;15.10;;;;;;;9.65;62.59;97982.92;1726629;82;20991;-67
2022/03/30 05:12:12;;;;;;;16.42;14.83;;;;;;;9.72;62.41;97985.11;1713668;82;20990;-68
2022/03/30 05:14:39;;;;;;;15.83;14.33;;;;;;;9.76;62.33;97987.66;1705754;82;20942;-66
2022/03/30 05:17:08;;;;;;;16.23;14.60;;;;;;;9.79;62.30;97987.26;1707585;82;20990;-67
2022/03/30 05:19:37;;;;;;;18.48;16.32;;;;;;;9.82;62.27;97992.67;1713697;82;20997;-67
2022/03/30 05:22:07;;;;;;;18.42;16.52;;;;;;;9.86;62.17;97988.08;1710859;82;21859;-65
2022/03/30 05:24:34;;;;;;;21.95;16.77;;;;;;;9.85;62.01;97986.44;1718406;82;21471;-67
2022/03/30 05:27:03;;;;;;;19.50;17.40;;;;;;;9.85;61.99;97994.40;1709274;82;21022;-65
2022/03/30 05:29:31;;;;;;;18.82;16.82;;;;;;;9.85;61.98;97995.73;1725234;82;20998;-69
2022/03/30 05:31:58;;;;;;;18.90;16.42;;;;;;;9.84;62.00;97997.27;1715623;83;21119;-66
2022/03/30 05:34:25;;;;;;;18.87;16.93;;;;;;;9.83;62.05;97999.60;1710550;82;21257;-68
2022/03/30 05:36:53;;;;;;;19.52;17.50;;;;;;;9.83;62.10;98006.24;1716753;82;21001;-67
2022/03/30 05:39:20;;;;;;;19.42;17.32;;;;;;;9.83;62.17;98008.39;1724045;82;20906;-67
2022/03/30 05:41:48;;;;;;;22.13;17.77;;;;;;;9.85;62.11;97997.59;1723957;82;20971;-66
2022/03/30 05:44:15;;;;;;;19.40;17.37;;;;;;;9.85;62.11;98002.37;1722201;82;20994;-67
2022/03/30 05:46:44;;;;;;;36.85;24.00;;;;;;;9.86;62.06;97993.39;1719748;83;21264;-68
2022/03/30 05:49:12;;;;;;;30.43;22.07;;;;;;;9.85;62.14;97994.40;1718940;82;21519;-68
2022/03/30 05:51:39;;;;;;;25.97;20.55;;;;;;;9.86;62.15;97989.91;1719082;82;21455;-66
2022/03/30 05:54:06;;;;;;;20.10;17.98;;;;;;;9.86;62.09;97993.89;1730495;81;21535;-68
2022/03/30 05:59:20;;;;;;;21.12;16.48;;;;;;;9.86;61.84;97996.05;1752102;81;21249;-65
2022/03/30 06:01:48;;;;;;;28.35;21.02;;;;;;;9.85;61.54;98000.25;1745102;81;20914;-67
2022/03/30 06:04:15;;;;;;;46.25;30.60;;;;;;;9.81;61.49;97995.83;1748256;81;21033;-65
2022/03/30 06:06:43;;;;;;;34.27;26.05;;;;;;;9.81;61.44;97996.34;1747621;81;20993;-67
2022/03/30 06:09:11;;;;;;;28.42;20.72;;;;;;;9.81;61.26;97993.18;1735959;81;20938;-69
2022/03/30 06:11:38;;;;;;;22.02;19.65;;;;;;;9.80;61.03;98002.16;1737149;80;21193;-67
2022/03/30 06:14:05;;;;;;;21.57;18.73;;;;;;;9.80;60.83;97999.50;1746331;81;21582;-67
2022/03/30 06:16:34;;;;;;;21.02;18.67;;;;;;;9.81;60.72;98002.47;1731512;81;20954;-65
2022/03/30 06:19:03;;;;;;;21.42;18.27;;;;;;;9.82;60.65;98002.80;1734676;81;21499;-66
2022/03/30 06:21:31;;;;;;;20.30;18.05;;;;;;;9.79;60.59;98001.86;1744224;81;21460;-67
2022/03/30 06:24:01;;;;;;;20.48;18.23;;;;;;;9.80;60.58;97996.84;1755654;81;21313;-66
2022/03/30 06:26:31;;;;;;;21.42;17.45;;;;;;;9.81;60.24;98002.98;1739312;80;21484;-68
2022/03/30 06:28:59;;;;;;;20.32;16.87;;;;;;;9.78;59.90;97999.39;1745369;81;20966;-67
2022/03/30 06:31:27;;;;;;;21.37;17.55;;;;;;;9.81;59.62;97999.82;1733507;81;20899;-66
2022/03/30 06:33:56;;;;;;;19.80;17.07;;;;;;;9.82;59.46;98002.80;1733150;81;20997;-66
2022/03/30 06:36:25;;;;;;;22.05;17.42;;;;;;;9.83;59.51;98004.92;1756021;81;21255;-68
2022/03/30 06:38:54;;;;;;;21.12;17.77;;;;;;;9.84;59.60;98011.87;1744854;81;20994;-66
2022/03/30 06:41:24;;;;;;;24.15;18.07;;;;;;;9.84;59.86;98013.20;1734055;80;20887;-66
2022/03/30 06:43:53;;;;;;;21.45;19.30;;;;;;;9.86;60.26;98016.47;1742580;81;21017;-69
2022/03/30 06:46:21;;;;;;;26.70;21.40;;;;;;;9.85;60.66;98014.32;1741797;81;20934;-66
2022/03/30 06:48:50;;;;;;;26.52;21.80;;;;;;;9.86;60.94;98018.63;1747483;81;21143;-65
2022/03/30 06:51:18;;;;;;;22.05;19.65;;;;;;;9.84;61.21;98023.33;1733425;81;20973;-67
2022/03/30 06:53:46;;;;;;;22.77;20.15;;;;;;;9.84;61.41;98030.47;1735400;80;21311;-67
2022/03/30 06:56:16;;;;;;;23.30;20.23;;;;;;;9.83;61.47;98028.31;1738900;80;20989;-66
2022/03/30 06:58:45;;;;;;;29.92;20.48;;;;;;;9.84;61.66;98029.97;1736009;81;20908;-67
2022/03/30 07:01:16;;;;;;;23.77;18.05;;;;;;;9.84;61.90;98035.28;1730217;80;21269;-66
2022/03/30 07:03:44;;;;;;;20.72;18.52;;;;;;;9.86;62.06;98031.91;1742862;80;21041;-67
2022/03/30 07:06:13;;;;;;;21.93;19.48;;;;;;;9.88;62.14;98035.71;1743191;80;21038;-73
2022/03/30 07:11:29;;;;;;;29.07;21.82;;;;;;;9.91;62.21;98037.94;1753767;80;21001;-68
2022/03/30 07:14:00;;;;;;;32.15;23.77;;;;;;;9.92;62.17;98042.24;1746939;80;21266;-65
2022/03/30 07:16:30;;;;;;;27.20;21.90;;;;;;;9.89;62.20;98044.80;1745285;80;20895;-66
2022/03/30 07:19:01;;;;;;;28.00;19.70;;;;;;;9.90;62.33;98047.77;1745307;81;20969;-69
2022/03/30 07:21:30;;;;;;;29.42;20.50;;;;;;;9.96;62.26;98047.98;1743869;81;21041;-65
2022/03/30 07:23:58;;;;;;;20.02;17.98;;;;;;;9.97;61.96;98049.60;1753615;81;20965;-66
2022/03/30 07:26:27;;;;;;;23.10;18.95;;;;;;;9.99;61.68;98051.04;1736940;80;21166;-70
2022/03/30 07:28:55;;;;;;;23.02;20.57;;;;;;;10.03;61.45;98052.80;1747249;81;20989;-68
2022/03/30 07:31:23;;;;;;;26.48;21.05;;;;;;;10.07;61.27;98054.84;1753353;81;21574;-64
2022/03/30 07:33:52;;;;;;;27.93;21.48;;;;;;;10.10;60.95;98059.76;1743571;81;20943;-70
2022/03/30 07:36:20;;;;;;;26.07;20.80;;;;;;;10.09;60.56;98055.45;1750523;81;21495;-67
2022/03/30 07:38:51;;;;;;;27.95;20.68;;;;;;;10.12;59.77;98059.55;1739269;81;21883;-68
2022/03/30 07:41:19;;;;;;;25.30;20.70;;;;;;;10.15;59.28;98060.00;1731288;80;21499;-67
2022/03/30 07:43:48;;;;;;;30.43;21.80;;;;;;;10.23;58.74;98050.52;1750390;81;20999;-66
2022/03/30 07:46:17;;;;;;;29.12;22.35;;;;;;;10.39;58.22;98049.30;1744737;81;20978;-66
2022/03/30 07:48:47;;;;;;;29.87;22.37;;;;;;;10.58;57.78;98047.69;1742817;81;21008;-68
2022/03/30 07:51:15;;;;;;;27.02;21.17;;;;;;;10.84;57.23;98041.02;1750337;81;21272;-68
2022/03/30 07:53:44;;;;;;;26.25;20.45;;;;;;;11.14;56.43;98044.34;1740725;81;20990;-68
2022/03/30 07:56:13;;;;;;;21.20;18.90;;;;;;;11.50;55.53;98046.99;1721765;81;21025;-67
2022/03/30 07:58:41;;;;;;;27.60;22.10;;;;;;;11.89;54.73;98044.19;1725679;82;21006;-67
2022/03/30 08:01:11;;;;;;;28.38;21.30;;;;;;;12.28;53.75;98045.30;1719321;82;21548;-68
2022/03/30 08:03:39;;;;;;;22.58;20.15;;;;;;;12.71;52.76;98045.39;1708408;82;21158;-65
2022/03/30 08:06:08;;;;;;;21.85;19.27;;;;;;;13.08;51.76;98044.98;1703681;83;21052;-68
2022/03/30 08:08:37;;;;;;;24.75;21.12;;;;;;;13.44;50.72;98038.84;1725226;82;20907;-67
2022/03/30 08:11:05;;;;;;;24.98;21.02;;;;;;;13.79;49.92;98045.73;1713489;82;21113;-68
2022/03/30 08:13:35;;;;;;;24.37;21.87;;;;;;;14.19;48.99;98040.13;1710245;82;21006;-69
2022/03/30 08:16:05;;;;;;;27.75;20.72;;;;;;;14.43;48.21;98038.38;1705316;82;21037;-69
2022/03/30 08:18:34;;;;;;;21.37;19.25;;;;;;;14.63;47.46;98041.03;1721216;82;20986;-65
2022/03/30 08:23:52;;;;;;;26.02;19.80;;;;;;;15.05;45.65;98043.10;1716781;83;20923;-66
2022/03/30 08:26:21;;;;;;;22.13;19.82;;;;;;;14.92;45.81;98032.62;1712433;82;20923;-66
2022/03/30 08:28:51;;;;;;;26.62;20.02;;;;;;;15.41;45.16;98032.12;1706323;82;21245;-68
2022/03/30 08:31:20;;;;;;;21.15;19.05;;;;;;;15.88;44.67;98032.84;1713050;82;20895;-66
2022/03/30 08:33:49;;;;;;;22.02;19.57;;;;;;;16.11;44.08;98031.14;1719311;82;20983;-66
2022/03/30 08:36:19;;;;;;;25.20;19.85;;;;;;;16.36;42.36;98032.93;1713242;82;20899;-67
2022/03/30 08:38:49;;;;;;;22.93;19.27;;;;;;;16.60;41.89;98020.52;1714421;82;20935;-65
2022/03/30 08:41:19;;;;;;;21.35;19.10;;;;;;;16.99;40.81;98018.70;1717950;82;21146;-68
2022/03/30 08:43:48;;;;;;;21.57;18.57;;;;;;;17.41;39.74;98022.24;1712297;82;21182;-68
2022/03/30 08:46:16;;;;;;;25.43;19.07;;;;;;;17.29;39.13;98015.09;1714843;82;21514;-68
2022/03/30 08:48:44;;;;;;;19.57;17.17;;;;;;;17.58;38.49;98017.64;1707299;82;21005;-67
2022/03/30 08:51:15;;;;;;;19.20;17.23;;;;;;;17.89;37.49;98007.53;1707520;82;21066;-67
2022/03/30 08:53:45;;;;;;;19.05;17.25;;;;;;;17.65;36.56;98007.54;1718769;82;21546;-64
2022/03/30 08:56:14;;;;;;;19.55;17.45;;;;;;;17.72;35.70;98009.49;1742871;81;21046;-68
2022/03/30 08:58:43;;;;;;;20.17;18.07;;;;;;;18.12;35.10;98014.52;1756480;81;21494;-67
2022/03/30 09:01:12;;;;;;;21.10;18.55;;;;;;;17.95;35.52;98007.05;1745298;81;21472;-65
2022/03/30 09:03:57;;;;;;;21.80;18.48;;;;;;;18.32;34.68;98003.42;1744106;81;21042;-66
2022/03/30 09:06:34;;;;;;;18.70;16.95;;;;;;;18.18;34.73;98004.06;1720592;81;21776;-68
2022/03/30 09:09:02;;;;;;;;;;;;;;;18.41;33.96;98005.91;1735831;81;20875;-65
2022/03/30 09:11:34;;;;;;;21.20;18.10;;;;;;;18.15;33.79;97999.19;1706561;83;20150;-68
2022/03/30 09:14:04;;;;;;;20.80;18.57;;;;;;;17.95;33.91;97994.42;1703578;83;20919;-67
2022/03/30 09:16:44;;;;;;;19.75;17.65;;;;;;;18.07;33.63;97988.35;1741068;81;20926;-66
2022/03/30 09:19:14;;;;;;;22.32;17.87;;;;;;;17.56;34.16;97987.52;1746656;81;21567;-65
2022/03/30 09:21:58;;;;;;;18.15;16.42;;;;;;;17.41;34.41;97990.80;1744935;81;21507;-67
2022/03/30 09:24:29;;;;;;;21.20;18.75;;;;;;;17.48;34.21;97986.57;1744354;80;20934;-69
2022/03/30 09:26:58;;;;;;;18.65;16.52;;;;;;;17.91;33.17;97989.25;1747789;81;20918;-67
2022/03/30 09:29:31;;;;;;;20.43;15.98;;;;;;;17.95;32.81;97987.70;1756151;81;21523;-69
2022/03/30 09:32:07;;;;;;;16.85;15.15;;;;;;;18.31;32.39;97978.91;1712721;82;21147;-66
2022/03/30 09:34:36;;;;;;;17.57;15.85;;;;;;;18.79;31.18;97980.69;1750636;81;20973;-65
2022/03/30 09:37:07;;;;;;;16.73;14.95;;;;;;;19.34;30.01;97974.82;1728367;81;20914;-66
2022/03/30 09:39:37;;;;;;;16.85;15.15;;;;;;;19.81;28.88;97966.67;1707537;80;20981;-66
2022/03/30 09:42:08;;;;;;;15.18;13.68;;;;;;;20.01;28.15;97968.59;1746286;81;21463;-67
2022/03/30 09:44:55;;;;;;;14.70;13.25;;;;;;;20.05;27.82;97969.70;1754424;81;21231;-69
2022/03/30 09:47:25;;;;;;;13.93;12.47;;;;;;;20.17;27.01;97966.20;1735487;81;20962;-66
2022/03/30 09:49:54;;;;;;;15.40;13.78;;;;;;;20.37;26.36;97962.73;1695780;81;20982;-66
2022/03/30 09:52:24;;;;;;;15.20;12.80;;;;;;;20.48;26.19;97961.13;1748274;81;21460;-66
2022/03/30 09:55:01;;;;;;;15.40;13.55;;;;;;;20.64;26.29;97962.75;1727304;80;20914;-66
2022/03/30 09:57:42;;;;;;;15.72;13.13;;;;;;;20.82;26.30;97962.73;1710743;82;21140;-66
2022/03/30 10:00:17;;;;;;;13.80;12.53;;;;;;;21.03;26.08;97954.05;1725197;82;21060;-68
2022/03/30 10:02:51;;;;;;;13.20;11.18;;;;;;;21.12;25.84;97950.53;1724563;82;21037;-67
2022/03/30 10:05:22;;;;;;;14.33;11.83;;;;;;;20.92;25.72;97965.41;1715383;82;21060;-67
2022/03/30 10:07:52;;;;;;;11.80;10.60;;;;;;;20.80;25.56;97963.02;1709255;83;20994;-67
2022/03/30 10:10:21;;;;;;;13.80;12.40;;;;;;;20.94;24.88;97949.19;1722122;82;21165;-68
2022/03/30 10:12:51;;;;;;;12.85;11.12;;;;;;;20.86;24.90;97952.98;1717948;82;20907;-65
2022/03/30 10:15:20;;;;;;;14.45;12.13;;;;;;;20.68;25.04;97948.95;1714554;82;21157;-65
2022/03/30 10:17:48;;;;;;;13.72;12.10;;;;;;;20.61;24.91;97945.73;1707343;83;21019;-65
2022/03/30 10:20:17;;;;;;;13.18;11.40;;;;;;;20.49;24.86;97938.42;1719011;82;21455;-65
2022/03/30 10:23:07;;;;;;;12.80;11.50;;;;;;;20.33;24.92;97945.45;1714488;82;21826;-65
2022/03/30 10:25:52;;;;;;;12.73;10.32;;;;;;;20.28;25.05;97938.95;1725305;82;20990;-67
2022/03/30 10:28:45;;;;;;;12.95;11.68;;;;;;;20.13;24.75;97938.92;1724635;82;20938;-65
2022/03/30 10:31:14;;;;;;;14.20;10.15;;;;;;;19.95;24.54;97942.13;1708556;82;21045;-63
2022/03/30 10:33:44;;;;;;;10.68;9.68;;;;;;;19.73;24.60;97936.16;1715788;82;21010;-66
2022/03/30 10:36:30;;;;;;;11.15;10.15;;;;;;;19.56;24.75;97943.11;1723516;82;21809;-66
2022/03/30 10:39:26;;;;;;;15.55;10.00;;;;;;;19.35;25.11;97945.41;1711160;82;20895;-65
2022/03/30 10:41:59;;;;;;;12.43;9.93;;;;;;;19.25;25.46;97944.02;1711336;82;21453;-66
2022/03/30 10:44:41;;;;;;;12.07;9.80;;;;;;;19.21;25.43;97941.59;1716579;82;20986;-67
2022/03/30 10:47:18;;;;;;;14.03;9.95;;;;;;;19.10;25.47;97943.42;1710138;82;21049;-65
2022/03/30 10:49:56;;;;;;;10.75;9.55;;;;;;;18.99;25.81;97946.31;1684982;84;21240;-68
2022/03/30 10:52:39;;;;;;;10.98;9.00;;;;;;;18.92;25.92;97946.55;1643768;85;21027;-67
2022/03/30 10:55:19;;;;;;;11.20;10.08;;;;;;;18.88;25.98;97940.58;1682371;84;20942;-69
2022/03/30 10:58:04;;;;;;;13.13;10.25;;;;;;;18.84;26.14;97940.30;1671186;85;20975;-68
2022/03/30 11:00:41;;;;;;;10.48;9.35;;;;;;;18.76;26.07;97931.36;1668693;85;20900;-67
2022/03/30 11:03:25;;;;;;;10.55;9.40;;;;;;;18.69;26.21;97931.31;1677163;84;21543;-66
2022/03/30 11:06:05;;;;;;;11.97;9.70;;;;;;;18.75;26.22;97919.48;1673851;84;20882;-66
2022/03/30 11:08:38;;;;;;;11.85;10.13;;;;;;;18.70;26.01;97931.04;1683918;84;21527;-67
2022/03/30 11:11:39;;;;;;;12.33;10.78;;;;;;;18.61;26.08;97935.83;1679605;84;21539;-68
2022/03/30 11:14:32;;;;;;;14.20;11.45;;;;;;;18.59;26.22;97927.20;1676694;84;20903;-67
2022/03/30 11:17:07;;;;;;;13.65;11.15;;;;;;;18.58;26.08;97933.13;1683532;84;21168;-68
2022/03/30 11:19:58;;;;;;;13.10;11.80;;;;;;;18.54;26.35;97923.13;1686091;84;21052;-64
2022/03/30 11:22:32;;;;;;;11.73;10.53;;;;;;;18.37;26.02;97926.73;1682162;84;21556;-68
2022/03/30 11:25:22;;;;;;;10.93;9.88;;;;;;;18.13;26.39;97932.17;1676669;84;20970;-66
2022/03/30 11:28:08;;;;;;;11.43;10.25;;;;;;;18.06;26.45;97922.16;1662022;85;21026;-67
2022/03/30 11:30:43;;;;;;;11.63;10.43;;;;;;;17.97;26.46;97925.02;1663786;85;21111;-65
2022/03/30 11:33:22;;;;;;;11.18;10.05;;;;;;;17.95;26.62;97930.38;1662645;85;21015;-65
2022/03/30 11:35:54;;;;;;;10.35;9.08;;;;;;;17.98;26.30;97928.00;1662890;85;21406;-68
2022/03/30 11:38:37;;;;;;;10.88;9.50;;;;;;;18.02;26.15;97920.22;1669870;84;21056;-68
2022/03/30 11:41:07;;;;;;;9.98;8.63;;;;;;;18.06;26.03;97920.00;1682782;85;21046;-67
2022/03/30 11:46:32;;;;;;;10.80;7.95;;;;;;;18.04;25.90;97920.23;1684525;84;20978;-67
2022/03/30 11:49:02;;;;;;;12.23;9.45;;;;;;;18.05;25.88;97916.49;1674290;84;20973;-67